createdAt,value
2022-09-15T00:00:31.912Z,3.40
2022-09-15T00:02:58.875Z,2.97
2022-09-15T00:05:25.751Z,2.63
2022-09-15T00:07:52.572Z,3.00
2022-09-15T00:10:19.485Z,2.97
2022-09-15T00:12:46.350Z,3.10
2022-09-15T00:15:15.085Z,2.42
2022-09-15T00:17:43.350Z,2.10
2022-09-15T00:20:10.767Z,3.08
2022-09-15T00:22:37.931Z,3.22
2022-09-15T00:25:05.414Z,2.40
2022-09-15T00:27:33.378Z,2.80
2022-09-15T00:30:00.594Z,2.00
2022-09-15T00:32:27.965Z,3.30
2022-09-15T00:34:54.752Z,3.47
2022-09-15T00:37:21.780Z,3.35
2022-09-15T00:39:49.117Z,3.30
2022-09-15T00:42:18.259Z,2.50
2022-09-15T00:44:50.574Z,2.08
2022-09-15T00:47:20.107Z,3.20
2022-09-15T00:49:50.811Z,3.40
2022-09-15T00:52:56.060Z,2.92
2022-09-15T00:55:39.788Z,3.28
2022-09-15T00:58:13.028Z,4.15
2022-09-15T01:00:47.820Z,2.83
2022-09-15T01:03:15.754Z,3.72
2022-09-15T01:05:48.401Z,3.95
2022-09-15T01:08:21.915Z,2.88
2022-09-15T01:10:49.214Z,4.00
2022-09-15T01:13:16.064Z,2.38
2022-09-15T01:16:18.705Z,3.13
2022-09-15T01:18:57.630Z,4.00
2022-09-15T01:22:03.877Z,4.78
2022-09-15T01:24:45.147Z,4.95
2022-09-15T01:27:42.629Z,5.50
2022-09-15T01:30:14.742Z,6.15
2022-09-15T01:33:04.276Z,5.13
2022-09-15T01:35:48.736Z,5.68
2022-09-15T01:38:24.856Z,5.57
2022-09-15T01:40:59.109Z,6.45
2022-09-15T01:43:27.925Z,8.15
2022-09-15T01:45:54.881Z,10.20
2022-09-15T01:48:25.536Z,10.13
2022-09-15T01:50:57.620Z,7.72
2022-09-15T01:53:24.510Z,5.38
2022-09-15T01:56:02.754Z,4.90
2022-09-15T01:58:29.750Z,4.07
2022-09-15T02:01:03.064Z,4.05
2022-09-15T02:03:44.721Z,3.00
2022-09-15T02:06:21.548Z,3.47
2022-09-15T02:08:58.599Z,4.50
2022-09-15T02:11:28.116Z,5.07
2022-09-15T02:14:11.439Z,5.47
2022-09-15T02:16:41.870Z,4.60
2022-09-15T02:19:21.960Z,6.00
2022-09-15T02:21:55.019Z,4.45
2022-09-15T02:24:30.346Z,5.40
2022-09-15T02:26:58.354Z,4.13
2022-09-15T02:29:27.662Z,6.45
2022-09-15T02:34:32.525Z,14.10
2022-09-15T02:37:00.048Z,12.15
2022-09-15T02:39:33.181Z,13.05
2022-09-15T02:42:02.331Z,4.95
2022-09-15T02:44:30.973Z,12.38
2022-09-15T02:47:02.044Z,10.02
2022-09-15T02:49:28.913Z,9.50
2022-09-15T02:51:55.980Z,8.43
2022-09-15T02:54:22.817Z,7.80
2022-09-15T02:56:49.646Z,8.55
2022-09-15T02:59:16.498Z,6.55
2022-09-15T03:01:45.003Z,6.22
2022-09-15T03:04:11.938Z,6.00
2022-09-15T03:06:38.716Z,6.22
2022-09-15T03:09:07.983Z,5.50
2022-09-15T03:11:35.905Z,6.10
2022-09-15T03:14:05.905Z,4.80
2022-09-15T03:16:34.629Z,5.28
2022-09-15T03:19:02.021Z,5.57
2022-09-15T03:21:29.859Z,5.22
2022-09-15T03:23:58.123Z,5.40
2022-09-15T03:26:25.433Z,5.45
2022-09-15T03:28:52.430Z,5.20
2022-09-15T03:31:19.977Z,5.13
2022-09-15T03:33:47.423Z,3.40
2022-09-15T03:36:14.469Z,3.60
2022-09-15T03:38:41.327Z,2.70
2022-09-15T03:41:11.097Z,2.85
2022-09-15T03:43:38.818Z,2.75
2022-09-15T03:46:07.693Z,3.20
2022-09-15T03:48:36.281Z,3.00
2022-09-15T03:51:04.496Z,2.77
2022-09-15T03:53:33.507Z,2.83
2022-09-15T03:56:24.255Z,2.65
2022-09-15T03:58:51.524Z,2.75
2022-09-15T04:01:19.173Z,3.00
2022-09-15T04:03:50.900Z,3.58
2022-09-15T04:06:20.943Z,4.18
2022-09-15T04:08:51.641Z,3.50
2022-09-15T04:11:19.970Z,3.53
2022-09-15T04:13:47.840Z,3.92
2022-09-15T04:16:17.777Z,3.30
2022-09-15T04:18:44.746Z,3.28
2022-09-15T04:21:14.164Z,3.25
2022-09-15T04:26:17.253Z,3.10
2022-09-15T04:28:44.039Z,3.30
2022-09-15T04:31:13.336Z,3.60
2022-09-15T04:33:42.167Z,3.00
2022-09-15T04:36:12.502Z,2.88
2022-09-15T04:38:39.455Z,3.05
2022-09-15T04:41:06.897Z,2.70
2022-09-15T04:43:34.374Z,2.63
2022-09-15T04:46:01.658Z,2.90
2022-09-15T04:48:28.914Z,2.65
2022-09-15T04:51:01.843Z,2.65
2022-09-15T04:53:29.080Z,3.33
2022-09-15T04:56:21.070Z,3.03
2022-09-15T04:58:50.823Z,3.33
2022-09-15T05:01:21.332Z,3.28
2022-09-15T05:03:48.948Z,3.40
2022-09-15T05:06:18.492Z,3.47
2022-09-15T05:08:53.315Z,3.47
2022-09-15T05:11:21.109Z,3.63
2022-09-15T05:13:48.576Z,3.33
2022-09-15T05:16:20.548Z,4.13
2022-09-15T05:18:48.626Z,3.78
2022-09-15T05:21:18.209Z,3.60
2022-09-15T05:23:46.356Z,4.10
2022-09-15T05:26:16.474Z,4.30
2022-09-15T05:28:43.859Z,4.28
2022-09-15T05:31:19.769Z,4.43
2022-09-15T05:33:48.146Z,4.03
2022-09-15T05:36:17.264Z,4.10
2022-09-15T05:38:45.080Z,3.97
2022-09-15T05:41:16.000Z,4.07
2022-09-15T05:43:43.413Z,4.20
2022-09-15T05:46:10.907Z,3.97
2022-09-15T05:48:37.977Z,3.58
2022-09-15T05:51:05.343Z,3.50
2022-09-15T05:53:34.829Z,3.28
